createdAt,value
2022-07-26T00:00:36.406Z,19.8
2022-07-26T00:10:36.879Z,19.6
2022-07-26T00:40:38.682Z,19.1
2022-07-26T00:50:39.186Z,18.9
2022-07-26T01:00:39.312Z,18.7
2022-07-26T01:10:39.968Z,18.6
2022-07-26T01:20:40.895Z,18.4
2022-07-26T01:30:41.591Z,18.3
2022-07-26T01:40:42.164Z,18.3
2022-07-26T01:50:42.114Z,18.3
2022-07-26T02:00:42.966Z,18.3
2022-07-26T02:20:43.518Z,18.3
2022-07-26T02:40:44.691Z,18.3
2022-07-26T03:10:46.937Z,18.3
2022-07-26T03:50:48.671Z,18.2
2022-07-26T04:00:48.862Z,18.1
2022-07-26T04:40:50.843Z,17.1
2022-07-26T05:01:09.321Z,17.1
2022-07-26T05:10:55.381Z,17
2022-07-26T05:20:52.504Z,17.1
2022-07-26T05:30:53.377Z,17.2
2022-07-26T05:50:54.885Z,17.5
2022-07-26T06:00:55.226Z,17.6
2022-07-26T06:10:56.122Z,17.7
2022-07-26T06:20:56.425Z,17.9
2022-07-26T06:30:56.985Z,18.1
2022-07-26T06:50:57.811Z,18.3
2022-07-26T07:10:59.549Z,18.8
2022-07-26T07:31:00.668Z,19.3
2022-07-26T07:41:01.043Z,19.5
2022-07-26T07:51:01.092Z,20.1
2022-07-26T08:01:01.412Z,20.4
2022-07-26T08:11:01.999Z,20.6
2022-07-26T08:31:02.942Z,20.4
2022-07-26T08:41:03.130Z,20.4
2022-07-26T08:51:03.562Z,20
2022-07-26T09:01:04.571Z,19.9
2022-07-26T09:11:05.231Z,20.2
2022-07-26T09:21:05.557Z,19.4
2022-07-26T09:31:05.770Z,18.9
2022-07-26T09:41:06.755Z,18.4
2022-07-26T09:51:07.427Z,18.2
2022-07-26T10:11:08.546Z,18.3
2022-07-26T10:21:08.648Z,18.2
2022-07-26T10:51:09.620Z,18.5
2022-07-26T11:11:10.747Z,16.7
2022-07-26T11:21:11.782Z,16.6
2022-07-26T11:58:09.044Z,17.3
2022-07-26T12:08:09.980Z,17.6
2022-07-26T12:18:10.278Z,17.9
2022-07-26T12:28:11.241Z,18.2
2022-07-26T13:08:14.137Z,18.6
2022-07-26T13:58:16.444Z,19.2
2022-07-26T14:08:16.918Z,19.3
2022-07-26T14:18:17.783Z,19.5
2022-07-26T14:28:18.317Z,19.7
2022-07-26T15:38:22.947Z,18.6
2022-07-26T15:58:24.108Z,18.8
2022-07-26T16:28:26.253Z,18.9
2022-07-26T16:58:27.710Z,18.9
2022-07-26T17:08:28.538Z,18.9
2022-07-26T17:18:28.771Z,19.2
2022-07-26T17:38:30.248Z,19.3
2022-07-26T17:48:30.961Z,19.2
2022-07-26T17:58:31.706Z,19.2
2022-07-26T18:08:32.111Z,19.3
2022-07-26T18:18:32.600Z,19.3
2022-07-26T18:28:33.569Z,19.1
2022-07-26T18:38:34.294Z,18.8
2022-07-26T18:48:35.162Z,18.7
2022-07-26T18:58:35.710Z,18.5
2022-07-26T19:18:36.528Z,18.3
2022-07-26T19:28:36.998Z,18.1
2022-07-26T19:38:37.059Z,18.1
2022-07-26T19:48:37.623Z,18
2022-07-26T19:58:38.326Z,17.9
2022-07-26T20:08:38.548Z,17.7
2022-07-26T20:18:38.904Z,17.6
2022-07-26T20:28:39.925Z,17.4
2022-07-26T20:38:40.541Z,17.2
2022-07-26T20:48:41.456Z,17.1
2022-07-26T20:58:41.696Z,17
2022-07-26T21:08:41.782Z,16.9
2022-07-26T21:18:42.562Z,16.8
2022-07-26T21:28:42.862Z,16.6
2022-07-26T21:38:43.879Z,16.4
2022-07-26T21:58:45.466Z,16.2
2022-07-26T22:08:45.574Z,16
2022-07-26T22:18:46.026Z,15.9
2022-07-26T22:28:46.424Z,15.8
2022-07-26T22:38:47.077Z,15.8
2022-07-26T22:48:48.113Z,15.7
2022-07-26T22:58:48.113Z,15.6
2022-07-26T23:08:48.892Z,15.4
2022-07-26T23:18:49.746Z,15.2
2022-07-26T23:28:49.965Z,15.2
2022-07-26T23:38:50.190Z,15.1
2022-07-26T23:48:50.911Z,15
2022-07-26T23:58:51.356Z,14.9
